createdAt,value
2023-04-05T01:02:05.305Z,99073.66
2023-04-05T01:03:50.613Z,99074.36
2023-04-05T01:05:45.647Z,99074.04
2023-04-05T01:07:07.978Z,99076.55
2023-04-05T01:08:30.366Z,99074.98
2023-04-05T01:10:19.445Z,99068.98
2023-04-05T01:11:55.855Z,99077.27
2023-04-05T01:13:40.649Z,99073.05
2023-04-05T01:15:26.819Z,99070.52
2023-04-05T01:17:01.515Z,99065.66
2023-04-05T01:18:48.021Z,99070.10
2023-04-05T01:20:25.942Z,99066.30
2023-04-05T01:22:01.489Z,99067.21
2023-04-05T01:23:49.335Z,99065.19
2023-04-05T01:25:23.227Z,99066.52
2023-04-05T01:26:56.862Z,99059.50
2023-04-05T01:28:32.791Z,99060.98
2023-04-05T01:30:21.872Z,99057.11
2023-04-05T01:31:55.309Z,99054.44
2023-04-05T01:33:40.777Z,99054.54
2023-04-05T01:35:18.505Z,99056.73
2023-04-05T01:37:04.537Z,99056.71
2023-04-05T01:38:39.096Z,99052.71
2023-04-05T01:40:26.810Z,99045.95
2023-04-05T01:42:21.580Z,99051.97
2023-04-05T01:43:54.880Z,99049.06
2023-04-05T01:45:49.673Z,99048.03
2023-04-05T01:47:44.699Z,99050.52
2023-04-05T01:49:39.654Z,99046.83
2023-04-05T01:51:27.132Z,99047.52
2023-04-05T01:53:21.127Z,99048.20
2023-04-05T01:55:14.846Z,99047.52
2023-04-05T01:57:01.409Z,99048.15
2023-04-05T01:58:47.896Z,99045.83
2023-04-05T02:00:40.110Z,99041.03
2023-04-05T02:02:25.840Z,99038.54
2023-04-05T02:04:07.196Z,99043.41
2023-04-05T02:05:45.463Z,99042.68
2023-04-05T02:07:40.907Z,99039.97
2023-04-05T02:09:35.687Z,99041.38
2023-04-05T02:11:09.106Z,99038.84
2023-04-05T02:12:43.933Z,99039.84
2023-04-05T02:14:18.825Z,99035.85
2023-04-05T02:16:04.237Z,99038.30
2023-04-05T02:17:57.679Z,99038.45
2023-04-05T02:19:52.867Z,99035.25
2023-04-05T02:21:29.975Z,99038.64
2023-04-05T02:23:19.521Z,99038.38
2023-04-05T02:24:55.987Z,99036.55
2023-04-05T02:26:43.258Z,99038.46
2023-04-05T02:28:28.874Z,99037.11
2023-04-05T02:30:23.643Z,99042.07
2023-04-05T02:31:59.869Z,99024.89
2023-04-05T02:33:34.517Z,99042.28
2023-04-05T02:35:20.276Z,99052.25
2023-04-05T02:36:49.281Z,99052.66
2023-04-05T02:38:42.949Z,99054.77
2023-04-05T02:40:21.626Z,99046.33
2023-04-05T02:42:16.452Z,99046.21
2023-04-05T02:43:50.895Z,99044.17
2023-04-05T02:45:36.560Z,99046.63
2023-04-05T02:47:24.240Z,99048.92
2023-04-05T02:49:22.702Z,99051.10
2023-04-05T02:50:56.171Z,99048.06
2023-04-05T02:52:50.374Z,99050.30
2023-04-05T02:54:24.243Z,99049.07
2023-04-05T02:56:09.842Z,99049.95
2023-04-05T02:57:56.395Z,99046.16
2023-04-05T02:59:48.851Z,99045.38
2023-04-05T03:01:42.357Z,99039.65
2023-04-05T03:03:22.895Z,99043.03
2023-04-05T03:05:06.164Z,99042.53
2023-04-05T03:06:57.084Z,99047.39
2023-04-05T03:08:48.573Z,99047.48
2023-04-05T03:10:43.701Z,99045.30
2023-04-05T03:12:34.574Z,99042.61
2023-04-05T03:14:29.792Z,99043.13
2023-04-05T03:16:23.683Z,99043.57
2023-04-05T03:17:59.293Z,99045.82
2023-04-05T03:19:34.372Z,99045.73
2023-04-05T03:21:36.817Z,99043.02
2023-04-05T03:23:30.161Z,99047.96
2023-04-05T03:25:11.328Z,99048.62
2023-04-05T03:26:49.957Z,99052.84
2023-04-05T03:28:45.629Z,99050.84
2023-04-05T03:30:26.428Z,99049.73
2023-04-05T03:32:19.037Z,99044.27
2023-04-05T03:33:59.779Z,99056.11
2023-04-05T03:35:35.950Z,99054.73
2023-04-05T03:37:23.878Z,99056.70
2023-04-05T03:39:07.475Z,99057.77
2023-04-05T03:40:53.151Z,99059.48
2023-04-05T03:42:25.348Z,99056.98
2023-04-05T03:44:12.929Z,99055.92
2023-04-05T03:45:59.548Z,99054.70
2023-04-05T03:47:46.712Z,99053.85
2023-04-05T03:49:31.745Z,99054.65
2023-04-05T03:51:05.370Z,99058.86
2023-04-05T03:52:52.294Z,99059.12
2023-04-05T03:54:33.431Z,99063.98
2023-04-05T03:56:27.844Z,99040.77
2023-04-05T03:58:14.005Z,99060.83
2023-04-05T03:59:58.942Z,99068.59
2023-04-05T04:01:46.444Z,99067.79
2023-04-05T04:03:26.407Z,99066.61
2023-04-05T04:05:21.711Z,99060.02
2023-04-05T04:07:16.194Z,99066.89
2023-04-05T04:09:00.409Z,99069.22
2023-04-05T04:10:47.374Z,99067.23
2023-04-05T04:12:44.650Z,99069.58
2023-04-05T04:14:32.303Z,99068.46
2023-04-05T04:16:28.946Z,99070.14
2023-04-05T04:18:53.627Z,99074.75
2023-04-05T04:21:30.589Z,99072.79
2023-04-05T04:23:28.200Z,99077.61
2023-04-05T04:25:32.727Z,99079.29
2023-04-05T04:27:30.475Z,99080.46
2023-04-05T04:30:08.660Z,99076.43
2023-04-05T04:31:50.963Z,99076.70
2023-04-05T04:33:51.719Z,99077.07
2023-04-05T04:35:51.714Z,99082.19
2023-04-05T04:37:17.841Z,99073.90
2023-04-05T04:39:43.704Z,99078.63
2023-04-05T04:41:49.580Z,99075.30
2023-04-05T04:43:52.675Z,99076.36
2023-04-05T04:45:54.876Z,99075.50
2023-04-05T04:47:34.050Z,99078.48
2023-04-05T04:49:39.443Z,99073.84
2023-04-05T04:51:33.359Z,99072.31
2023-04-05T04:53:22.862Z,99071.56
2023-04-05T04:54:57.431Z,99076.20
2023-04-05T04:56:38.133Z,99073.63
2023-04-05T04:58:11.836Z,99082.80
2023-04-05T04:59:57.594Z,99079.20
2023-04-05T05:01:43.619Z,99081.75
2023-04-05T05:03:36.115Z,99076.93
2023-04-05T05:05:31.666Z,99079.73
2023-04-05T05:07:17.541Z,99077.11
2023-04-05T05:08:51.111Z,99082.58
2023-04-05T05:10:38.061Z,99079.23
2023-04-05T05:12:28.714Z,99077.29
2023-04-05T05:14:12.503Z,99081.20
2023-04-05T05:15:34.420Z,99080.48
2023-04-05T05:17:10.740Z,99077.92
2023-04-05T05:18:55.665Z,99078.08
2023-04-05T05:20:32.481Z,99082.32
2023-04-05T05:22:26.323Z,99076.55
2023-04-05T05:24:02.169Z,99083.98
2023-04-05T05:25:42.765Z,99085.75
2023-04-05T05:27:16.641Z,99087.69
2023-04-05T05:28:50.289Z,99085.58
2023-04-05T05:30:36.582Z,99085.97
2023-04-05T05:32:30.401Z,99085.11
2023-04-05T05:34:04.058Z,99081.78
2023-04-05T05:35:54.635Z,99090.23
2023-04-05T05:37:40.194Z,99086.25
2023-04-05T05:39:14.414Z,99090.06
2023-04-05T05:40:59.949Z,99091.06
2023-04-05T05:42:35.090Z,99094.41
2023-04-05T05:44:08.866Z,99097.77
2023-04-05T05:45:42.532Z,99096.06
2023-04-05T05:47:30.161Z,99096.13
2023-04-05T05:49:25.663Z,99087.77
2023-04-05T05:51:13.167Z,99096.20
2023-04-05T05:52:47.581Z,99095.67
2023-04-05T05:54:33.250Z,99090.27
2023-04-05T05:56:16.664Z,99096.48
2023-04-05T05:58:01.906Z,99096.79
2023-04-05T05:59:47.321Z,99093.48
2023-04-05T06:01:38.897Z,99092.52
2023-04-05T06:03:20.448Z,99093.58
2023-04-05T06:05:01.906Z,99095.87
2023-04-05T06:06:47.818Z,99093.98
2023-04-05T06:08:41.547Z,99093.52
2023-04-05T06:10:35.434Z,99097.50
2023-04-05T06:12:20.624Z,99095.62
2023-04-05T06:14:08.984Z,99099.14
2023-04-05T06:15:50.511Z,99097.13
2023-04-05T06:17:36.443Z,99095.73
2023-04-05T06:19:22.299Z,99094.95
2023-04-05T06:20:57.468Z,99095.16
2023-04-05T06:22:45.662Z,99097.48
2023-04-05T06:24:19.547Z,99094.25
2023-04-05T06:26:05.704Z,99093.70
2023-04-05T06:27:47.777Z,99097.80
2023-04-05T06:29:35.784Z,99103.39
2023-04-05T06:31:11.492Z,99100.36
2023-04-05T06:32:56.639Z,99100.91
2023-04-05T06:34:37.618Z,99098.28
2023-04-05T06:36:33.592Z,99099.27
2023-04-05T06:38:29.576Z,99098.22
2023-04-05T06:40:06.475Z,99100.72
2023-04-05T06:41:54.789Z,99105.53
2023-04-05T06:43:37.637Z,99110.65
2023-04-05T06:45:24.211Z,99109.23
2023-04-05T06:47:05.103Z,99107.00
2023-04-05T06:48:50.472Z,99109.63
2023-04-05T06:50:45.557Z,99106.84
2023-04-05T06:52:28.548Z,99104.08
2023-04-05T06:54:18.575Z,99106.72
2023-04-05T06:56:04.604Z,99108.61
2023-04-05T06:57:47.590Z,99107.66
2023-04-05T06:59:24.072Z,99107.56
2023-04-05T07:00:57.283Z,99106.55
2023-04-05T07:02:42.741Z,99105.63
2023-04-05T07:04:29.941Z,99106.75
2023-04-05T07:06:18.149Z,99103.17
2023-04-05T07:07:54.119Z,99113.38
2023-04-05T07:09:47.477Z,99111.39
2023-04-05T07:11:33.418Z,99110.63
2023-04-05T07:13:14.573Z,99105.34
2023-04-05T07:14:36.463Z,99108.67
2023-04-05T07:16:30.200Z,99105.70
2023-04-05T07:18:16.357Z,99103.41
2023-04-05T07:19:46.296Z,99105.64
2023-04-05T07:21:32.571Z,99107.84
2023-04-05T07:23:18.310Z,99106.09
2023-04-05T07:24:53.849Z,99107.37
2023-04-05T07:26:35.043Z,99110.38
2023-04-05T07:27:58.742Z,99109.70
2023-04-05T07:29:47.156Z,99109.19
2023-04-05T07:31:37.890Z,99112.09
2023-04-05T07:33:23.164Z,99109.80
2023-04-05T07:34:58.886Z,99107.83
2023-04-05T07:36:46.637Z,99108.09
2023-04-05T07:38:20.748Z,99106.07
2023-04-05T07:39:54.031Z,99105.08
2023-04-05T07:41:41.205Z,99106.23
2023-04-05T07:43:16.929Z,99104.44
2023-04-05T07:45:02.221Z,99107.82
2023-04-05T07:46:45.541Z,99105.12
2023-04-05T07:48:24.324Z,99101.84
2023-04-05T07:49:58.230Z,99098.23
2023-04-05T07:51:44.675Z,99097.61
2023-04-05T07:53:09.104Z,99094.83
2023-04-05T07:54:54.975Z,99100.92
2023-04-05T07:56:40.421Z,99100.70
2023-04-05T07:58:18.590Z,99102.17
2023-04-05T07:59:40.344Z,99101.12
2023-04-05T08:01:28.914Z,99102.13
2023-04-05T08:03:02.859Z,99095.93
2023-04-05T08:04:43.281Z,99102.58
2023-04-05T08:06:28.553Z,99101.11
2023-04-05T08:08:17.641Z,99103.79
2023-04-05T08:10:03.070Z,99106.38
2023-04-05T08:11:48.338Z,99103.69
2023-04-05T08:13:38.739Z,99103.17
2023-04-05T08:15:24.123Z,99105.20
2023-04-05T08:16:57.212Z,99100.08
2023-04-05T08:18:37.909Z,99101.98
2023-04-05T08:20:11.421Z,99101.48
2023-04-05T08:21:55.917Z,99103.60
2023-04-05T08:23:36.758Z,99103.52
2023-04-05T08:25:12.721Z,99103.69
2023-04-05T08:26:46.809Z,99105.11
2023-04-05T08:28:22.263Z,99102.45
2023-04-05T08:30:07.316Z,99104.86
2023-04-05T08:31:31.358Z,99106.29
2023-04-05T08:33:07.430Z,99103.36
2023-04-05T08:34:42.667Z,99105.73
2023-04-05T08:36:16.623Z,99100.09
2023-04-05T08:37:49.741Z,99103.36
2023-04-05T08:39:35.325Z,99101.65
2023-04-05T08:41:12.038Z,99095.90
2023-04-05T08:42:56.999Z,99095.39
2023-04-05T08:44:47.038Z,99099.11
2023-04-05T08:46:21.013Z,99099.69
2023-04-05T08:47:54.232Z,99100.52
2023-04-05T08:49:39.172Z,99095.02
2023-04-05T08:51:12.773Z,99095.96
2023-04-05T08:52:57.626Z,99096.27
2023-04-05T08:54:51.104Z,99097.92
2023-04-05T08:56:31.618Z,99098.89
2023-04-05T08:58:05.082Z,99096.73
2023-04-05T08:59:38.342Z,99101.80
2023-04-05T09:01:20.606Z,99100.91
2023-04-05T09:03:05.525Z,99096.45
2023-04-05T09:04:46.593Z,99096.13
2023-04-05T09:06:22.533Z,99095.13
2023-04-05T09:07:55.413Z,99099.52
2023-04-05T09:09:36.328Z,99096.63
2023-04-05T09:11:25.033Z,99088.69
2023-04-05T09:13:18.344Z,99092.67
2023-04-05T09:14:53.573Z,99096.11
2023-04-05T09:16:47.074Z,99098.73
2023-04-05T09:18:32.465Z,99079.90
2023-04-05T09:20:26.041Z,99094.08
2023-04-05T09:22:11.756Z,99100.00
2023-04-05T09:23:34.908Z,99095.72
2023-04-05T09:25:08.561Z,99090.85
2023-04-05T09:26:49.759Z,99098.81
2023-04-05T09:28:35.067Z,99093.86
2023-04-05T09:30:08.704Z,99094.09
2023-04-05T09:31:34.947Z,99097.23
2023-04-05T09:33:16.131Z,99094.98
2023-04-05T09:35:01.171Z,99098.02
2023-04-05T09:36:35.791Z,99099.50
2023-04-05T09:38:05.522Z,99101.17
2023-04-05T09:39:40.615Z,99100.10
2023-04-05T09:41:06.915Z,99097.69
2023-04-05T09:42:41.762Z,99096.20
2023-04-05T09:44:04.054Z,99098.33
2023-04-05T09:45:37.110Z,99093.97
2023-04-05T09:47:11.110Z,99098.95
2023-04-05T09:48:34.988Z,99097.27
2023-04-05T09:50:10.465Z,99106.34
2023-04-05T09:51:46.207Z,99103.36
2023-04-05T09:53:30.547Z,99103.22
2023-04-05T09:55:15.770Z,99098.70
2023-04-05T09:56:39.851Z,99104.45
2023-04-05T09:58:01.499Z,99102.11
2023-04-05T09:59:28.129Z,99095.93
2023-04-05T10:01:15.710Z,99096.95
2023-04-05T10:02:52.896Z,99091.23
2023-04-05T10:04:38.575Z,99084.23
2023-04-05T10:06:14.822Z,99085.86
2023-04-05T10:07:47.897Z,99088.42
2023-04-05T10:09:19.444Z,99085.73
2023-04-05T10:11:04.252Z,99080.15
2023-04-05T10:12:48.913Z,99085.83
2023-04-05T10:14:34.356Z,99086.69
2023-04-05T10:16:08.356Z,99086.58
2023-04-05T10:17:53.091Z,99091.23
2023-04-05T10:19:38.534Z,99092.80
2023-04-05T10:21:23.934Z,99087.09
2023-04-05T10:22:57.315Z,99088.79
2023-04-05T10:24:38.303Z,99079.87
2023-04-05T10:26:12.433Z,99081.74
2023-04-05T10:27:34.159Z,99080.25
2023-04-05T10:29:05.619Z,99082.48
2023-04-05T10:30:31.897Z,99083.79
2023-04-05T10:32:06.396Z,99074.07
2023-04-05T10:33:47.352Z,99079.77
2023-04-05T10:35:33.096Z,99074.63
2023-04-05T10:37:18.673Z,99076.05
2023-04-05T10:38:52.181Z,99075.17
2023-04-05T10:42:43.820Z,99069.41
2023-04-05T10:44:26.370Z,99066.25
2023-04-05T10:45:48.328Z,99063.95
2023-04-05T10:47:33.738Z,99058.00
2023-04-05T10:49:22.749Z,99060.06
2023-04-05T10:50:56.035Z,99057.33
2023-04-05T10:52:44.145Z,99061.55
2023-04-05T10:54:17.769Z,99056.72
2023-04-05T10:55:41.615Z,99055.52
2023-04-05T10:57:17.397Z,99060.84
2023-04-05T10:58:52.500Z,99056.78
2023-04-05T11:00:21.849Z,99051.79
2023-04-05T11:01:52.961Z,99056.22
2023-04-05T11:03:15.026Z,99055.10
2023-04-05T11:04:55.208Z,99056.77
2023-04-05T11:06:37.332Z,99058.55
2023-04-05T11:08:23.379Z,99046.17
2023-04-05T11:10:16.552Z,99056.72
2023-04-05T11:11:38.058Z,99056.56
2023-04-05T11:13:11.106Z,99058.44
2023-04-05T11:14:46.364Z,99058.05
2023-04-05T11:16:22.395Z,99058.10
2023-04-05T11:18:08.921Z,99053.27
2023-04-05T11:19:38.556Z,99054.41
2023-04-05T11:21:33.554Z,99057.76
2023-04-05T11:23:18.575Z,99053.17
2023-04-05T11:25:04.327Z,99051.27
2023-04-05T11:26:33.670Z,99032.25
2023-04-05T11:28:27.555Z,99042.48
2023-04-05T11:30:01.921Z,99045.39
2023-04-05T11:31:42.718Z,99044.45
2023-04-05T11:33:20.716Z,99046.00
2023-04-05T11:35:05.677Z,99042.27
2023-04-05T11:36:48.132Z,99045.48
2023-04-05T11:38:21.910Z,99040.92
2023-04-05T11:39:55.155Z,99044.70
2023-04-05T11:41:36.043Z,99047.65
2023-04-05T11:43:09.419Z,99045.33
2023-04-05T11:44:34.665Z,99045.36
2023-04-05T11:46:28.216Z,99048.80
2023-04-05T11:48:01.786Z,99043.01
2023-04-05T11:49:47.108Z,99043.88
2023-04-05T11:51:32.149Z,99042.48
2023-04-05T11:53:09.358Z,99040.91
2023-04-05T11:54:46.402Z,99042.14
2023-04-05T11:56:16.376Z,99038.41
2023-04-05T11:57:57.024Z,99036.40
2023-04-05T11:59:42.250Z,99014.02
2023-04-05T12:01:16.501Z,99037.31
2023-04-05T12:02:49.526Z,99034.88
2023-04-05T12:04:26.664Z,99032.36
2023-04-05T12:05:53.546Z,99034.05
2023-04-05T12:07:41.206Z,99037.62
2023-04-05T12:09:07.795Z,99041.67
2023-04-05T12:10:31.837Z,99039.11
2023-04-05T12:12:04.956Z,99040.95
2023-04-05T12:13:38.335Z,99042.60
2023-04-05T12:15:23.452Z,99046.48
2023-04-05T12:16:56.888Z,99032.55
2023-04-05T12:18:19.037Z,99044.80
2023-04-05T12:20:09.163Z,99044.34
2023-04-05T12:21:54.109Z,99038.38
2023-04-05T12:23:28.552Z,99042.27
2023-04-05T12:25:01.689Z,99040.83
2023-04-05T12:26:25.730Z,99038.83
2023-04-05T12:27:59.246Z,99039.27
2023-04-05T12:29:51.891Z,99034.08
2023-04-05T12:31:27.745Z,99036.20
2023-04-05T12:33:03.238Z,99032.51
2023-04-05T12:34:27.314Z,99032.27
2023-04-05T12:36:02.896Z,99033.55
2023-04-05T12:37:47.025Z,99028.60
2023-04-05T12:39:23.072Z,99030.73
2023-04-05T12:40:56.406Z,99030.25
2023-04-05T12:42:29.505Z,99034.53
2023-04-05T12:43:58.265Z,99033.23
2023-04-05T12:45:27.657Z,99030.20
2023-04-05T12:47:02.652Z,99035.36
2023-04-05T12:48:47.259Z,99038.76
2023-04-05T12:50:13.428Z,99041.95
2023-04-05T12:51:46.506Z,99040.48
2023-04-05T12:53:21.103Z,99039.73
2023-04-05T12:54:56.573Z,99042.61
2023-04-05T12:56:32.454Z,99034.17
2023-04-05T12:58:25.965Z,99033.49
2023-04-05T12:59:58.921Z,99037.38
2023-04-05T13:01:44.660Z,99032.24
2023-04-05T13:03:21.031Z,99036.96
2023-04-05T13:04:54.423Z,99037.08
2023-04-05T13:06:27.862Z,99039.52
2023-04-05T13:07:49.269Z,99036.55
2023-04-05T13:09:22.808Z,99041.72
2023-04-05T13:10:58.092Z,99042.05
2023-04-05T13:12:52.553Z,99039.21
2023-04-05T13:14:26.401Z,99035.69
2023-04-05T13:16:10.815Z,99033.34
2023-04-05T13:17:55.360Z,99033.67
2023-04-05T13:19:24.925Z,99029.54
2023-04-05T13:21:11.275Z,99029.88
2023-04-05T13:22:44.534Z,99029.44
2023-04-05T13:24:18.292Z,99028.82
2023-04-05T13:25:51.581Z,99014.64
2023-04-05T13:27:25.403Z,99030.88
2023-04-05T13:28:58.653Z,99030.86
2023-04-05T13:30:32.733Z,99023.27
2023-04-05T13:32:06.261Z,99028.34
2023-04-05T13:33:39.332Z,99030.04
2023-04-05T13:35:05.664Z,99028.91
2023-04-05T13:36:39.351Z,99029.54
2023-04-05T13:38:05.805Z,99026.48
2023-04-05T13:39:39.321Z,99024.44
2023-04-05T13:41:19.951Z,99023.14
2023-04-05T13:42:45.703Z,99028.44
2023-04-05T13:44:26.581Z,99021.05
2023-04-05T13:46:02.551Z,99024.52
2023-04-05T13:47:42.960Z,99023.36
2023-04-05T13:49:16.983Z,99025.64
2023-04-05T13:50:52.510Z,99023.64
2023-04-05T13:52:26.499Z,99019.58
2023-04-05T13:54:01.756Z,99025.39
2023-04-05T13:55:35.157Z,99023.65
2023-04-05T13:57:16.612Z,99024.38
2023-04-05T13:58:57.408Z,99026.36
2023-04-05T14:00:35.119Z,99021.94
2023-04-05T14:02:29.613Z,99027.44
2023-04-05T14:04:14.947Z,99020.88
2023-04-05T14:05:38.316Z,99014.13
2023-04-05T14:07:11.820Z,99019.77
2023-04-05T14:08:56.319Z,99023.64
2023-04-05T14:10:21.402Z,99024.29
2023-04-05T14:12:10.709Z,99022.14
2023-04-05T14:13:55.433Z,99021.98
2023-04-05T14:15:30.531Z,99024.55
2023-04-05T14:17:04.154Z,99024.17
2023-04-05T14:18:30.440Z,99024.61
2023-04-05T14:20:06.041Z,99028.04
2023-04-05T14:21:46.945Z,99029.69
2023-04-05T14:23:28.327Z,99027.96
2023-04-05T14:25:08.793Z,99028.39
2023-04-05T14:26:53.703Z,99027.55
2023-04-05T14:28:38.980Z,99024.86
2023-04-05T14:30:20.518Z,99030.47
2023-04-05T14:31:53.435Z,99034.69
2023-04-05T14:33:33.337Z,99034.44
2023-04-05T14:35:23.401Z,99027.48
2023-04-05T14:36:56.694Z,99017.16
2023-04-05T14:38:26.498Z,99043.92
2023-04-05T14:40:07.175Z,99045.28
2023-04-05T14:41:40.730Z,99031.71
2023-04-05T14:43:28.819Z,99042.35
2023-04-05T14:45:22.571Z,99046.36
2023-04-05T14:46:58.304Z,99047.82
2023-04-05T14:48:53.544Z,99046.81
2023-04-05T14:50:34.586Z,99044.19
2023-04-05T14:52:07.778Z,99048.35
2023-04-05T14:53:43.384Z,99051.04
2023-04-05T14:55:23.969Z,99050.45
2023-04-05T14:56:59.065Z,99052.19
2023-04-05T14:58:32.931Z,99048.25
2023-04-05T14:59:56.567Z,99052.91
2023-04-05T15:01:45.785Z,99054.64
2023-04-05T15:03:21.706Z,99039.47
2023-04-05T15:05:07.489Z,99054.52
2023-04-05T15:06:29.559Z,99053.65
2023-04-05T15:08:11.971Z,99056.24
2023-04-05T15:09:48.765Z,99054.20
2023-04-05T15:11:34.115Z,99051.25
2023-04-05T15:13:19.476Z,99055.02
2023-04-05T15:14:48.546Z,99050.77
2023-04-05T15:16:29.335Z,99054.52
2023-04-05T15:18:14.294Z,99054.33
2023-04-05T15:19:59.160Z,99055.23
2023-04-05T15:21:43.843Z,99053.89
2023-04-05T15:23:20.073Z,99057.15
2023-04-05T15:24:56.020Z,99056.30
2023-04-05T15:26:36.885Z,99055.10
2023-04-05T15:28:19.555Z,99059.58
2023-04-05T15:30:00.227Z,99060.76
2023-04-05T15:31:53.669Z,99059.35
2023-04-05T15:33:20.226Z,99057.95
2023-04-05T15:35:01.035Z,99060.64
2023-04-05T15:36:46.168Z,99061.96
2023-04-05T15:38:27.304Z,99060.22
2023-04-05T15:39:53.288Z,99060.01
2023-04-05T15:41:43.591Z,99056.10
2023-04-05T15:43:25.123Z,99056.95
2023-04-05T15:44:55.984Z,99058.25
2023-04-05T15:46:29.665Z,99056.82
2023-04-05T15:48:11.403Z,99054.13
2023-04-05T15:49:56.164Z,99056.73
2023-04-05T15:51:29.556Z,99052.88
2023-04-05T15:53:02.685Z,99050.79
2023-04-05T15:54:47.651Z,99053.64
2023-04-05T15:56:23.590Z,99049.71
2023-04-05T15:58:17.563Z,99052.32
2023-04-05T15:59:50.427Z,99055.04
2023-04-05T16:01:14.850Z,99056.54
2023-04-05T16:03:00.695Z,99053.05
2023-04-05T16:04:46.074Z,99054.48
2023-04-05T16:08:29.968Z,99056.83
2023-04-05T16:10:15.163Z,99058.51
2023-04-05T16:12:00.088Z,99056.61
2023-04-05T16:13:50.279Z,99056.35
2023-04-05T16:15:24.545Z,99041.54
2023-04-05T16:17:09.707Z,99055.86
2023-04-05T16:18:45.658Z,99055.80
2023-04-05T16:20:26.661Z,99055.63
2023-04-05T16:22:19.970Z,99060.38
2023-04-05T16:23:56.828Z,99058.20
2023-04-05T16:25:32.624Z,99065.73
2023-04-05T16:27:18.041Z,99062.98
2023-04-05T16:28:58.702Z,99065.53
2023-04-05T16:30:32.125Z,99061.16
2023-04-05T16:32:17.529Z,99059.81
2023-04-05T16:33:41.768Z,99058.49
2023-04-05T16:35:15.065Z,99056.27
2023-04-05T16:36:44.035Z,99059.82
2023-04-05T16:38:22.046Z,99060.23
2023-04-05T16:40:02.786Z,99059.42
2023-04-05T16:41:36.394Z,99064.52
2023-04-05T16:43:26.764Z,99064.54
2023-04-05T16:45:11.268Z,99059.14
2023-04-05T16:46:52.312Z,99066.23
2023-04-05T16:48:34.053Z,99068.18
2023-04-05T16:50:19.420Z,99067.75
2023-04-05T16:52:04.863Z,99069.02
2023-04-05T16:53:38.153Z,99075.77
2023-04-05T16:55:24.040Z,99069.88
2023-04-05T16:56:57.599Z,99073.00
2023-04-05T16:58:31.673Z,99080.00
2023-04-05T16:59:58.062Z,99072.48
2023-04-05T17:01:31.912Z,99074.31
2023-04-05T17:03:25.660Z,99072.11
2023-04-05T17:05:10.639Z,99077.81
2023-04-05T17:06:46.145Z,99078.57
2023-04-05T17:08:31.896Z,99084.37
2023-04-05T17:10:05.316Z,99084.25
2023-04-05T17:11:50.454Z,99084.21
2023-04-05T17:13:24.355Z,99086.44
2023-04-05T17:14:48.672Z,99085.24
2023-04-05T17:16:13.385Z,99087.68
2023-04-05T17:17:58.405Z,99088.95
2023-04-05T17:19:33.773Z,99087.55
2023-04-05T17:21:19.002Z,99087.28
2023-04-05T17:22:59.564Z,99085.71
2023-04-05T17:24:48.034Z,99086.94
2023-04-05T17:26:29.148Z,99086.63
2023-04-05T17:28:22.265Z,99092.66
2023-04-05T17:30:02.682Z,99089.50
2023-04-05T17:31:39.024Z,99088.39
2023-04-05T17:33:33.616Z,99091.77
2023-04-05T17:35:07.539Z,99089.30
2023-04-05T17:36:52.613Z,99091.08
2023-04-05T17:38:38.579Z,99096.30
2023-04-05T17:40:24.435Z,99090.14
2023-04-05T17:41:59.788Z,99095.30
2023-04-05T17:43:36.585Z,99097.89
2023-04-05T17:45:17.454Z,99097.61
2023-04-05T17:46:54.341Z,99100.90
2023-04-05T17:48:51.571Z,99104.26
2023-04-05T17:52:34.126Z,99106.10
2023-04-05T17:54:19.969Z,99102.56
2023-04-05T17:56:05.268Z,99109.93
2023-04-05T17:57:50.322Z,99112.71
2023-04-05T17:59:23.938Z,99115.91
2023-04-05T18:00:57.922Z,99120.64
2023-04-05T18:02:43.212Z,99119.81
2023-04-05T18:04:10.186Z,99127.14
2023-04-05T18:05:45.949Z,99128.52
2023-04-05T18:07:08.436Z,99124.78
2023-04-05T18:08:32.641Z,99132.33
2023-04-05T18:09:54.824Z,99129.20
2023-04-05T18:11:31.746Z,99128.00
2023-04-05T18:13:05.454Z,99129.08
2023-04-05T18:14:49.139Z,99128.64
2023-04-05T18:16:11.943Z,99130.59
2023-04-05T18:19:57.294Z,99133.79
2023-04-05T18:21:31.020Z,99125.41
2023-04-05T18:23:13.580Z,99133.97
2023-04-05T18:24:48.844Z,99140.70
2023-04-05T18:26:25.249Z,99136.71
2023-04-05T18:27:47.019Z,99140.19
2023-04-05T18:29:40.916Z,99121.67
2023-04-05T18:31:15.791Z,99141.77
2023-04-05T18:32:54.549Z,99141.02
2023-04-05T18:34:39.906Z,99144.11
2023-04-05T18:36:26.592Z,99143.74
2023-04-05T18:38:02.444Z,99150.17
2023-04-05T18:39:35.927Z,99150.19
2023-04-05T18:41:12.308Z,99153.39
2023-04-05T18:42:58.040Z,99152.70
2023-04-05T18:44:33.821Z,99156.94
2023-04-05T18:48:31.435Z,99158.75
2023-04-05T18:50:16.785Z,99157.09
2023-04-05T18:51:48.687Z,99157.73
2023-04-05T18:53:22.313Z,99140.96
2023-04-05T18:54:58.573Z,99157.39
2023-04-05T18:58:55.558Z,99161.71
2023-04-05T19:00:41.081Z,99162.67
2023-04-05T19:02:22.199Z,99164.75
2023-04-05T19:03:55.938Z,99165.30
2023-04-05T19:05:42.263Z,99163.08
2023-04-05T19:07:36.585Z,99164.52
2023-04-05T19:09:21.965Z,99170.77
2023-04-05T19:10:53.202Z,99169.60
2023-04-05T19:12:35.791Z,99166.32
2023-04-05T19:14:08.916Z,99166.64
2023-04-05T19:15:33.110Z,99164.97
2023-04-05T19:17:17.586Z,99166.50
2023-04-05T19:18:53.470Z,99166.02
2023-04-05T19:20:25.322Z,99131.38
2023-04-05T19:21:58.997Z,99164.83
2023-04-05T19:23:32.910Z,99164.36
2023-04-05T19:25:02.178Z,99163.74
2023-04-05T19:26:38.281Z,99165.77
2023-04-05T19:28:19.585Z,99162.33
2023-04-05T19:29:55.006Z,99164.76
2023-04-05T19:31:27.320Z,99160.41
2023-04-05T19:33:00.702Z,99161.88
2023-04-05T19:34:34.671Z,99165.13
2023-04-05T19:37:56.505Z,99165.98
2023-04-05T19:39:29.525Z,99167.00
2023-04-05T19:41:14.527Z,99161.77
2023-04-05T19:42:59.570Z,99166.05
2023-04-05T19:44:44.770Z,99160.42
2023-04-05T19:46:06.859Z,99162.20
2023-04-05T19:47:29.142Z,99159.65
2023-04-05T19:49:02.607Z,99163.36
2023-04-05T19:50:29.765Z,99157.11
2023-04-05T19:52:01.333Z,99161.96
2023-04-05T19:53:34.949Z,99162.08
2023-04-05T19:54:56.576Z,99162.75
2023-04-05T19:56:50.200Z,99160.20
2023-04-05T19:58:31.399Z,99158.58
2023-04-05T20:00:17.000Z,99150.75
2023-04-05T20:01:51.618Z,99159.90
2023-04-05T20:03:25.638Z,99154.50
2023-04-05T20:04:59.048Z,99150.75
2023-04-05T20:06:44.356Z,99146.58
2023-04-05T20:08:19.357Z,99144.01
2023-04-05T20:09:43.458Z,99152.69
2023-04-05T20:11:24.332Z,99153.70
2023-04-05T20:12:55.249Z,99154.50
2023-04-05T20:14:36.149Z,99152.52
2023-04-05T20:15:57.814Z,99147.95
2023-04-05T20:17:22.872Z,99147.63
2023-04-05T20:18:51.579Z,99152.46
2023-04-05T20:20:25.911Z,99143.39
2023-04-05T20:21:55.450Z,99142.14
2023-04-05T20:23:34.605Z,99127.88
2023-04-05T20:25:21.917Z,99135.30
2023-04-05T20:26:56.734Z,99139.15
2023-04-05T20:28:30.448Z,99140.04
2023-04-05T20:29:59.319Z,99143.16
2023-04-05T20:31:52.700Z,99143.23
2023-04-05T20:33:14.939Z,99124.30
2023-04-05T20:34:46.661Z,99139.20
2023-04-05T20:36:11.820Z,99137.20
2023-04-05T20:38:02.927Z,99138.17
2023-04-05T20:39:44.012Z,99134.17
2023-04-05T20:41:19.877Z,99131.65
2023-04-05T20:42:44.370Z,99137.70
2023-04-05T20:44:20.387Z,99128.61
2023-04-05T20:45:54.832Z,99133.30
2023-04-05T20:47:40.414Z,99132.19
2023-04-05T20:51:07.930Z,99133.56
2023-04-05T20:52:41.575Z,99112.33
2023-04-05T20:54:24.477Z,99135.09
2023-04-05T20:56:00.105Z,99132.89